Time;durP1;ratioP1;P1;durP2;ratioP2;P2;SDS_P1;SDS_P2;PMS_P1;PMS_P2;Temp;Humidity;BMP_temperature;BMP_pressure;BME280_temperature;BME280_humidity;BME280_pressure;Samples;Min_cycle;Max_cycle;Signal;HPM_P1;HPM_P2
2023/06/06 00:00:50;;;;;;;5.45;4.63;;;20.90;49.10;;;;;;4995234;28;20076;-45
2023/06/06 00:03:21;;;;;;;6.40;3.95;;;20.90;49.30;;;;;;5012414;28;20038;-45
2023/06/06 00:05:48;;;;;;;5.10;4.60;;;20.80;49.40;;;;;;5008101;28;20589;-45
2023/06/06 00:08:15;;;;;;;5.25;4.15;;;20.80;49.50;;;;;;5011931;28;20057;-48
2023/06/06 00:10:44;;;;;;;5.88;4.63;;;20.70;49.50;;;;;;5012571;28;20088;-47
2023/06/06 00:13:13;;;;;;;8.23;4.88;;;20.60;49.60;;;;;;5012191;28;20125;-45
2023/06/06 00:15:40;;;;;;;8.38;5.88;;;20.60;49.80;;;;;;5009147;28;20078;-45
2023/06/06 00:18:11;;;;;;;7.07;4.85;;;20.50;50.00;;;;;;5012539;28;20121;-46
2023/06/06 00:20:40;;;;;;;6.75;5.10;;;20.40;50.10;;;;;;5011312;28;20073;-47
2023/06/06 00:23:07;;;;;;;5.95;5.05;;;20.40;50.20;;;;;;5012547;28;20052;-45
2023/06/06 00:25:36;;;;;;;7.80;5.03;;;20.30;50.40;;;;;;5009486;28;20080;-45
2023/06/06 00:28:05;;;;;;;6.22;5.13;;;20.30;50.50;;;;;;5011798;28;20117;-45
2023/06/06 00:30:34;;;;;;;6.40;5.07;;;20.20;50.40;;;;;;5010691;28;20112;-47
2023/06/06 00:33:05;;;;;;;5.72;4.70;;;20.20;50.60;;;;;;5011223;28;20045;-48
2023/06/06 00:35:36;;;;;;;8.07;5.60;;;20.10;50.90;;;;;;5011604;28;20048;-44
2023/06/06 00:38:06;;;;;;;8.60;5.10;;;20.10;50.80;;;;;;5012550;28;20046;-45
2023/06/06 00:40:32;;;;;;;6.70;6.00;;;20.00;50.80;;;;;;5009470;28;20073;-45
2023/06/06 00:42:59;;;;;;;7.45;5.43;;;20.00;51.00;;;;;;5010538;28;20073;-45
2023/06/06 00:45:28;;;;;;;6.80;4.82;;;19.90;51.00;;;;;;5011476;28;20048;-48
2023/06/06 00:47:59;;;;;;;5.82;5.10;;;19.90;51.00;;;;;;5012188;28;20045;-44
2023/06/06 00:50:26;;;;;;;6.95;5.47;;;19.90;51.10;;;;;;5008712;28;20052;-45
2023/06/06 00:52:56;;;;;;;6.78;4.85;;;19.80;51.20;;;;;;5009591;28;20129;-47
2023/06/06 00:55:26;;;;;;;6.80;5.43;;;19.80;51.20;;;;;;5003444;28;20069;-45
2023/06/06 00:58:06;;;;;;;6.75;4.90;;;19.70;51.30;;;;;;4985239;28;20104;-45
2023/06/06 01:00:33;;;;;;;9.05;5.10;;;19.70;51.30;;;;;;4992675;28;20100;-45
2023/06/06 01:03:09;;;;;;;8.02;6.32;;;19.70;51.30;;;;;;5010964;28;20075;-48
2023/06/06 01:05:37;;;;;;;6.53;5.13;;;19.60;51.90;;;;;;5010434;28;20069;-47
2023/06/06 01:08:05;;;;;;;6.40;5.63;;;19.60;51.40;;;;;;5011361;28;20084;-43
2023/06/06 01:10:36;;;;;;;8.02;6.15;;;19.60;51.50;;;;;;4991134;28;20108;-46
2023/06/06 01:13:26;;;;;;;8.02;5.43;;;19.50;51.60;;;;;;4993482;28;20072;-46
2023/06/06 01:15:59;;;;;;;5.72;5.10;;;19.50;52.40;;;;;;5011426;28;20046;-44
2023/06/06 01:18:31;;;;;;;9.75;5.90;;;19.40;51.80;;;;;;5010069;28;20103;-47
2023/06/06 01:20:59;;;;;;;7.47;5.60;;;19.40;51.90;;;;;;5011016;28;20054;-46
2023/06/06 01:23:27;;;;;;;6.72;5.60;;;19.30;51.90;;;;;;5009666;28;20096;-47
2023/06/06 01:25:54;;;;;;;7.60;5.78;;;19.30;52.00;;;;;;5008972;28;20096;-45
2023/06/06 01:28:25;;;;;;;9.23;5.35;;;19.20;52.10;;;;;;5010990;28;20038;-45
2023/06/06 01:30:54;;;;;;;6.88;5.18;;;19.20;52.20;;;;;;4993661;28;20074;-46
2023/06/06 01:33:51;;;;;;;7.35;5.70;;;19.10;52.40;;;;;;5010306;28;20050;-48
2023/06/06 01:36:33;;;;;;;7.22;5.43;;;19.10;53.00;;;;;;5009532;28;20061;-46
2023/06/06 01:39:15;;;;;;;8.20;5.32;;;19.10;52.80;;;;;;5005432;28;20050;-45
2023/06/06 01:41:45;;;;;;;6.57;5.30;;;19.00;52.70;;;;;;5010784;28;20038;-47
2023/06/06 01:44:16;;;;;;;8.80;6.35;;;19.00;52.60;;;;;;5008448;28;20541;-45
2023/06/06 01:46:43;;;;;;;6.68;5.07;;;18.90;52.60;;;;;;4993300;28;20462;-45
2023/06/06 01:49:16;;;;;;;6.68;5.28;;;18.90;52.50;;;;;;5009965;28;20129;-44
2023/06/06 01:51:43;;;;;;;6.70;5.72;;;18.80;52.90;;;;;;4985774;28;20054;-45
2023/06/06 01:54:12;;;;;;;8.25;5.50;;;18.80;52.80;;;;;;5009394;28;20042;-48
2023/06/06 01:56:41;;;;;;;8.23;6.75;;;18.80;53.10;;;;;;4985719;28;20061;-46
2023/06/06 01:59:08;;;;;;;8.00;5.82;;;18.70;53.10;;;;;;4991754;28;20042;-46
2023/06/06 02:01:39;;;;;;;8.52;6.00;;;18.70;53.20;;;;;;5009103;28;20498;-47
2023/06/06 02:04:06;;;;;;;6.95;5.50;;;18.70;53.20;;;;;;5008403;28;20116;-45
2023/06/06 02:06:35;;;;;;;7.22;5.30;;;18.60;53.30;;;;;;5008897;28;20486;-45
2023/06/06 02:09:02;;;;;;;8.85;6.80;;;18.60;53.30;;;;;;4992157;28;20034;-47
2023/06/06 02:11:31;;;;;;;9.57;7.43;;;18.60;53.40;;;;;;5009603;28;20675;-45
2023/06/06 02:14:08;;;;;;;7.57;5.57;;;18.50;53.50;;;;;;4992172;28;20045;-46
2023/06/06 02:16:36;;;;;;;8.32;5.97;;;18.50;53.80;;;;;;5010347;28;20042;-44
2023/06/06 02:19:07;;;;;;;7.70;6.22;;;18.40;53.50;;;;;;4991690;28;20100;-48
2023/06/06 02:21:33;;;;;;;7.72;6.13;;;18.40;53.70;;;;;;4986862;28;20124;-45
2023/06/06 02:24:00;;;;;;;7.72;6.32;;;18.40;53.80;;;;;;4988844;28;20049;-47
2023/06/06 02:26:35;;;;;;;9.38;6.70;;;18.30;53.90;;;;;;5010039;28;20038;-48
2023/06/06 02:29:03;;;;;;;9.23;6.32;;;18.30;53.90;;;;;;4991974;28;20069;-46
2023/06/06 02:31:30;;;;;;;8.38;6.47;;;18.30;54.00;;;;;;4992614;28;20121;-44
2023/06/06 02:33:57;;;;;;;9.95;6.20;;;18.20;54.10;;;;;;4990458;28;20092;-43
2023/06/06 02:36:29;;;;;;;9.13;7.07;;;18.20;54.20;;;;;;5009708;28;20050;-48
2023/06/06 02:39:02;;;;;;;9.20;6.28;;;18.20;54.30;;;;;;4991554;28;20053;-46
2023/06/06 02:41:31;;;;;;;8.45;6.68;;;18.10;54.30;;;;;;4991587;28;20045;-44
2023/06/06 02:44:03;;;;;;;8.40;6.57;;;18.10;54.30;;;;;;4989699;28;20074;-48
2023/06/06 02:46:31;;;;;;;10.15;7.20;;;18.00;54.40;;;;;;4992737;28;20042;-45
2023/06/06 02:48:59;;;;;;;9.15;6.30;;;18.00;54.40;;;;;;4994465;28;20045;-45
2023/06/06 02:51:27;;;;;;;9.48;7.20;;;18.00;54.60;;;;;;5009852;28;20104;-45
2023/06/06 02:53:53;;;;;;;9.20;6.88;;;17.90;54.70;;;;;;5005780;28;20050;-44
2023/06/06 02:56:23;;;;;;;9.50;6.70;;;17.90;54.60;;;;;;4999504;28;20056;-44
2023/06/06 02:58:52;;;;;;;7.45;6.25;;;17.90;54.70;;;;;;5000763;28;20310;-44
2023/06/06 03:01:22;;;;;;;7.88;6.53;;;17.90;54.70;;;;;;4992980;28;20056;-45
2023/06/06 03:03:51;;;;;;;9.30;6.47;;;17.80;54.60;;;;;;4988402;28;20504;-47
2023/06/06 03:06:20;;;;;;;9.57;7.03;;;17.80;54.80;;;;;;4992555;28;20050;-45
2023/06/06 03:08:47;;;;;;;9.93;6.78;;;17.80;54.60;;;;;;4992090;28;20053;-45
2023/06/06 03:11:16;;;;;;;10.27;6.80;;;17.70;54.50;;;;;;5009153;28;20137;-47
2023/06/06 03:13:45;;;;;;;8.73;5.82;;;17.70;54.70;;;;;;4986526;28;20410;-43
2023/06/06 03:16:17;;;;;;;9.52;6.10;;;17.70;54.80;;;;;;4996848;28;20100;-45
2023/06/06 03:18:46;;;;;;;8.77;6.97;;;17.60;55.00;;;;;;4996385;28;20053;-45
2023/06/06 03:21:14;;;;;;;8.00;6.40;;;17.60;54.80;;;;;;4993904;28;20648;-48
2023/06/06 03:23:45;;;;;;;9.07;6.63;;;17.60;55.00;;;;;;4993429;28;20046;-48
2023/06/06 03:26:13;;;;;;;8.32;5.78;;;17.50;55.00;;;;;;4992841;28;20043;-47
2023/06/06 03:28:44;;;;;;;8.32;6.13;;;17.50;55.10;;;;;;4994275;28;20130;-48
2023/06/06 03:31:16;;;;;;;7.97;6.35;;;17.50;55.00;;;;;;4995906;28;20156;-51
2023/06/06 03:33:48;;;;;;;8.15;6.70;;;17.40;55.20;;;;;;4992437;28;20077;-47
2023/06/06 03:36:22;;;;;;;8.40;6.22;;;17.40;55.10;;;;;;5006524;28;20034;-47
2023/06/06 03:38:50;;;;;;;8.07;6.38;;;17.40;55.10;;;;;;4995784;28;20135;-46
2023/06/06 03:41:21;;;;;;;10.90;6.50;;;17.40;55.40;;;;;;4996607;28;20069;-47
2023/06/06 03:43:52;;;;;;;10.00;6.97;;;17.30;55.40;;;;;;4991624;28;20045;-48
2023/06/06 03:46:21;;;;;;;11.18;6.60;;;17.30;55.70;;;;;;5012630;28;20041;-47
2023/06/06 03:48:50;;;;;;;8.85;6.65;;;17.30;55.70;;;;;;4994638;28;20095;-47
2023/06/06 03:51:24;;;;;;;9.63;6.50;;;17.30;55.50;;;;;;4990818;28;20101;-47
2023/06/06 03:53:52;;;;;;;8.75;6.72;;;17.30;55.60;;;;;;5003961;28;20073;-46
2023/06/06 03:56:18;;;;;;;10.52;7.88;;;17.30;55.80;;;;;;4988806;28;20529;-46
2023/06/06 03:58:49;;;;;;;9.02;6.65;;;17.20;55.80;;;;;;5012100;28;20040;-47
2023/06/06 04:01:22;;;;;;;11.00;7.47;;;17.20;55.80;;;;;;4995149;28;20136;-47
2023/06/06 04:03:53;;;;;;;10.68;7.15;;;17.20;55.90;;;;;;4991418;28;20042;-48
2023/06/06 04:06:20;;;;;;;9.90;7.47;;;17.20;56.20;;;;;;5011934;28;20052;-47
2023/06/06 04:08:52;;;;;;;7.93;6.45;;;17.20;56.10;;;;;;4994969;28;20044;-46
2023/06/06 04:11:25;;;;;;;9.93;6.90;;;17.20;56.40;;;;;;5012793;28;20088;-50
2023/06/06 04:13:58;;;;;;;8.95;6.90;;;17.20;56.50;;;;;;4987996;28;20383;-49
2023/06/06 04:16:25;;;;;;;10.40;7.00;;;17.20;56.30;;;;;;4995577;28;20050;-49
2023/06/06 04:18:54;;;;;;;9.88;6.97;;;17.20;56.40;;;;;;4986923;28;20069;-46
2023/06/06 04:21:23;;;;;;;11.38;7.32;;;17.20;56.40;;;;;;5012053;28;20080;-49
2023/06/06 04:23:53;;;;;;;9.05;7.45;;;17.10;56.40;;;;;;5009259;28;20092;-47
2023/06/06 04:26:31;;;;;;;11.50;7.47;;;17.10;56.40;;;;;;4994334;28;20041;-50
2023/06/06 04:29:08;;;;;;;9.77;6.72;;;17.10;57.10;;;;;;5011210;28;20042;-46
2023/06/06 04:31:36;;;;;;;10.70;7.43;;;17.10;56.90;;;;;;4995157;28;20042;-48
2023/06/06 04:34:04;;;;;;;9.93;6.22;;;17.10;56.80;;;;;;4991755;28;20144;-48
2023/06/06 04:36:38;;;;;;;9.55;7.43;;;17.10;56.90;;;;;;5012403;28;20045;-47
2023/06/06 04:39:08;;;;;;;11.00;7.38;;;17.10;57.10;;;;;;4994548;28;20173;-47
2023/06/06 04:41:42;;;;;;;9.43;6.95;;;17.10;57.20;;;;;;4995127;28;20093;-49
2023/06/06 04:44:17;;;;;;;8.98;6.53;;;17.10;57.80;;;;;;5011054;28;20041;-47
2023/06/06 04:47:00;;;;;;;10.52;7.82;;;17.10;57.20;;;;;;4994837;28;20085;-48
2023/06/06 04:49:35;;;;;;;10.63;7.57;;;17.20;57.30;;;;;;4994116;28;20088;-46
2023/06/06 04:52:06;;;;;;;9.55;7.05;;;17.20;57.40;;;;;;5012321;28;20046;-48
2023/06/06 04:54:43;;;;;;;12.55;7.72;;;17.20;57.30;;;;;;4991483;28;20038;-49
2023/06/06 04:57:15;;;;;;;9.18;7.10;;;17.20;57.10;;;;;;5012813;28;20386;-50
2023/06/06 04:59:50;;;;;;;11.13;6.90;;;17.20;57.10;;;;;;5011251;28;20069;-49
2023/06/06 05:02:26;;;;;;;9.73;7.78;;;17.20;57.40;;;;;;5012690;28;20537;-51
2023/06/06 05:04:57;;;;;;;9.23;7.05;;;17.20;57.60;;;;;;4991377;28;20069;-47
2023/06/06 05:07:25;;;;;;;9.73;7.35;;;17.20;57.60;;;;;;5010853;28;20038;-47
2023/06/06 05:09:53;;;;;;;10.20;7.38;;;17.20;57.30;;;;;;5011275;28;20034;-45
2023/06/06 05:12:21;;;;;;;10.05;8.18;;;17.20;57.50;;;;;;5011628;28;20071;-47
2023/06/06 05:14:50;;;;;;;9.82;7.20;;;17.30;57.60;;;;;;5010956;28;20058;-47
2023/06/06 05:17:23;;;;;;;9.37;6.67;;;17.30;57.50;;;;;;5012360;28;20064;-48
2023/06/06 05:19:50;;;;;;;9.52;6.78;;;17.30;57.30;;;;;;5010965;28;20284;-51
2023/06/06 05:22:19;;;;;;;10.63;7.75;;;17.30;57.40;;;;;;5011521;28;20096;-48
2023/06/06 05:24:50;;;;;;;11.02;7.18;;;17.30;57.40;;;;;;5007843;28;20054;-47
2023/06/06 05:27:18;;;;;;;11.80;8.43;;;17.40;57.30;;;;;;5010523;28;20038;-46
2023/06/06 05:29:48;;;;;;;9.35;6.93;;;17.40;57.20;;;;;;5010796;28;20041;-48
2023/06/06 05:32:17;;;;;;;9.43;6.80;;;17.40;57.20;;;;;;5010888;28;20041;-47
2023/06/06 05:34:44;;;;;;;8.45;7.30;;;17.40;57.10;;;;;;5010534;28;20116;-47
2023/06/06 05:37:11;;;;;;;8.45;6.93;;;17.40;57.30;;;;;;5012019;28;20116;-47
2023/06/06 05:39:37;;;;;;;8.27;6.78;;;17.40;57.40;;;;;;5010486;28;20069;-51
2023/06/06 05:42:07;;;;;;;12.40;8.02;;;17.40;57.60;;;;;;5009934;28;20523;-49
2023/06/06 05:44:40;;;;;;;14.15;7.90;;;17.40;57.60;;;;;;5010069;28;20042;-48
2023/06/06 05:47:14;;;;;;;12.45;7.72;;;17.40;57.60;;;;;;5011590;28;20096;-51
2023/06/06 05:49:44;;;;;;;;;;;17.40;57.60;;;;;;5010199;28;20113;-49
2023/06/06 05:52:18;;;;;;;11.32;7.40;;;17.40;56.90;;;;;;5010728;28;19922;-49
2023/06/06 05:55:02;;;;;;;11.07;7.03;;;17.50;57.30;;;;;;5008527;28;20105;-47
2023/06/06 05:57:34;;;;;;;9.82;7.22;;;17.40;57.50;;;;;;5011169;28;20100;-46
2023/06/06 06:00:08;;;;;;;10.35;7.22;;;17.50;57.30;;;;;;5010319;28;20046;-48
2023/06/06 06:02:38;;;;;;;9.23;7.85;;;17.50;57.50;;;;;;5011255;28;20089;-46
2023/06/06 06:05:09;;;;;;;10.32;7.15;;;17.50;57.40;;;;;;5009797;28;20041;-50
2023/06/06 06:07:39;;;;;;;10.93;8.60;;;17.50;57.50;;;;;;5010827;28;20038;-47
2023/06/06 06:10:09;;;;;;;11.90;8.30;;;17.50;57.60;;;;;;5010642;28;20038;-47
2023/06/06 06:12:38;;;;;;;12.23;7.55;;;17.50;57.60;;;;;;5010559;28;20077;-47
2023/06/06 06:15:05;;;;;;;8.93;7.50;;;17.50;57.70;;;;;;5010542;28;20037;-48
2023/06/06 06:17:34;;;;;;;10.45;7.72;;;17.60;57.80;;;;;;5010865;28;20121;-47
2023/06/06 06:20:08;;;;;;;10.68;8.00;;;17.60;57.80;;;;;;5002484;28;20033;-49
2023/06/06 06:22:38;;;;;;;13.52;8.38;;;17.60;57.90;;;;;;5009831;28;20418;-49
2023/06/06 06:25:12;;;;;;;11.35;7.15;;;17.70;57.80;;;;;;5007736;28;20073;-52
2023/06/06 06:27:42;;;;;;;10.00;7.53;;;17.70;57.60;;;;;;5010558;28;20040;-49
2023/06/06 06:30:09;;;;;;;9.02;7.75;;;17.80;57.40;;;;;;5009274;28;20034;-47
2023/06/06 06:32:38;;;;;;;15.88;8.07;;;17.80;57.50;;;;;;5010434;28;20041;-48
2023/06/06 06:35:12;;;;;;;11.68;7.72;;;17.80;57.50;;;;;;5007498;28;20033;-48
2023/06/06 06:37:43;;;;;;;12.90;8.82;;;17.80;57.50;;;;;;5010733;28;20030;-48
2023/06/06 06:40:10;;;;;;;12.60;7.82;;;17.90;57.60;;;;;;5010518;28;20026;-48
2023/06/06 06:42:42;;;;;;;11.63;8.35;;;17.90;57.60;;;;;;5009905;28;20034;-47
2023/06/06 06:45:28;;;;;;;11.52;7.90;;;17.90;57.60;;;;;;4988307;28;20133;-47
2023/06/06 06:47:55;;;;;;;12.10;9.07;;;17.90;57.40;;;;;;5010795;28;20117;-47
2023/06/06 06:50:26;;;;;;;13.05;8.63;;;18.00;57.50;;;;;;5009830;28;20045;-49
2023/06/06 06:52:56;;;;;;;12.30;8.73;;;18.00;57.60;;;;;;5010764;28;20635;-48
2023/06/06 06:55:24;;;;;;;13.90;9.32;;;18.00;57.60;;;;;;5008831;28;20029;-47
2023/06/06 06:57:51;;;;;;;14.68;9.18;;;18.00;57.70;;;;;;5010115;28;20073;-47
2023/06/06 07:00:23;;;;;;;12.90;8.25;;;18.00;57.80;;;;;;5010770;28;20087;-47
2023/06/06 07:02:54;;;;;;;12.25;8.93;;;18.00;58.00;;;;;;4992695;28;20042;-48
2023/06/06 07:05:21;;;;;;;12.73;7.97;;;18.00;57.90;;;;;;5009898;28;20038;-47
2023/06/06 07:07:52;;;;;;;11.98;8.25;;;18.00;57.70;;;;;;5010571;28;20124;-50
2023/06/06 07:10:25;;;;;;;12.60;8.32;;;18.10;57.90;;;;;;5010220;28;20453;-48
2023/06/06 07:12:54;;;;;;;12.13;8.32;;;18.10;58.10;;;;;;5010070;28;20048;-48
2023/06/06 07:15:32;;;;;;;13.05;8.75;;;18.10;58.20;;;;;;4992997;28;20053;-47
2023/06/06 07:17:59;;;;;;;15.95;8.52;;;18.10;57.90;;;;;;5010782;28;20421;-48
2023/06/06 07:20:28;;;;;;;12.65;8.80;;;18.20;58.00;;;;;;5010525;28;20391;-48
2023/06/06 07:22:57;;;;;;;13.50;9.07;;;18.20;57.80;;;;;;5002736;23;20093;-53
2023/06/06 07:25:26;;;;;;;13.18;8.27;;;18.20;57.80;;;;;;5001788;28;20045;-55
2023/06/06 07:27:57;;;;;;;13.55;9.93;;;18.30;57.90;;;;;;5008522;28;20081;-56
2023/06/06 07:30:24;;;;;;;10.93;8.50;;;18.30;58.00;;;;;;5004981;28;20046;-55
2023/06/06 07:32:56;;;;;;;14.63;10.85;;;18.40;57.90;;;;;;5005193;28;20038;-56
2023/06/06 07:35:24;;;;;;;14.32;9.05;;;18.50;57.80;;;;;;5010277;28;20044;-50
2023/06/06 07:37:51;;;;;;;13.30;9.65;;;18.50;57.90;;;;;;5003096;28;20569;-51
2023/06/06 07:40:22;;;;;;;14.18;8.88;;;18.50;57.60;;;;;;5006234;28;20129;-50
2023/06/06 07:42:49;;;;;;;11.90;8.52;;;18.60;57.80;;;;;;5008640;28;20041;-52
2023/06/06 07:45:15;;;;;;;10.50;7.85;;;18.60;57.90;;;;;;5010274;28;20469;-50
2023/06/06 07:47:44;;;;;;;12.68;8.02;;;18.70;57.70;;;;;;5009741;28;20117;-50
2023/06/06 07:50:13;;;;;;;11.55;7.82;;;18.70;57.50;;;;;;5004345;28;20132;-51
2023/06/06 07:52:46;;;;;;;13.40;8.40;;;18.80;57.80;;;;;;5009704;28;20053;-50
2023/06/06 07:55:16;;;;;;;10.40;7.93;;;18.80;57.70;;;;;;5007312;28;20069;-51
2023/06/06 07:57:45;;;;;;;9.88;7.63;;;18.90;57.70;;;;;;5008481;28;20113;-50
2023/06/06 08:00:15;;;;;;;10.38;7.90;;;18.90;57.80;;;;;;5010978;28;20065;-52
2023/06/06 08:02:49;;;;;;;10.27;7.70;;;19.00;57.50;;;;;;5007778;28;20065;-52
2023/06/06 08:05:19;;;;;;;10.85;7.55;;;19.10;57.50;;;;;;5005420;28;20494;-50
2023/06/06 08:07:50;;;;;;;13.10;8.00;;;19.20;57.30;;;;;;5013564;28;20505;-50
2023/06/06 08:10:18;;;;;;;10.85;7.60;;;19.20;57.30;;;;;;5013795;28;20118;-52
2023/06/06 08:12:45;;;;;;;11.48;7.85;;;19.20;56.90;;;;;;5008014;28;20069;-50
2023/06/06 08:15:19;;;;;;;13.73;8.77;;;19.30;56.90;;;;;;5009074;28;20080;-50
2023/06/06 08:17:49;;;;;;;10.27;8.30;;;19.40;56.70;;;;;;5010865;28;20096;-51
2023/06/06 08:20:17;;;;;;;10.20;8.20;;;19.40;56.90;;;;;;5013560;28;20046;-54
2023/06/06 08:22:50;;;;;;;9.75;7.85;;;19.40;57.20;;;;;;5007500;28;20132;-56
2023/06/06 08:25:19;;;;;;;10.07;8.23;;;19.50;56.80;;;;;;5000009;28;20057;-50
2023/06/06 08:27:50;;;;;;;10.70;8.05;;;19.50;56.80;;;;;;5012274;28;20065;-52
2023/06/06 08:30:21;;;;;;;12.32;8.90;;;19.50;56.50;;;;;;5013262;28;20130;-52
2023/06/06 08:32:52;;;;;;;12.73;8.07;;;19.60;56.60;;;;;;5006464;28;20045;-55
2023/06/06 08:35:22;;;;;;;15.18;9.10;;;19.60;56.70;;;;;;5012810;28;20037;-54
2023/06/06 08:37:50;;;;;;;10.57;8.35;;;19.80;56.60;;;;;;5007573;28;20046;-52
2023/06/06 08:40:17;;;;;;;13.32;9.00;;;19.70;56.50;;;;;;4999806;28;20118;-55
2023/06/06 08:42:50;;;;;;;13.95;9.38;;;19.80;56.70;;;;;;5006776;28;20046;-54
2023/06/06 08:45:22;;;;;;;12.35;9.07;;;19.80;56.60;;;;;;5013015;28;20387;-54
2023/06/06 08:47:54;;;;;;;12.65;7.90;;;19.90;56.40;;;;;;5012746;28;20096;-51
2023/06/06 08:50:22;;;;;;;10.15;7.95;;;20.00;56.00;;;;;;5011178;28;20137;-53
2023/06/06 08:52:56;;;;;;;12.88;8.52;;;20.00;56.00;;;;;;5012055;28;20048;-55
2023/06/06 08:55:23;;;;;;;13.85;8.23;;;20.10;56.10;;;;;;5009022;28;20116;-55
2023/06/06 08:57:55;;;;;;;9.77;8.00;;;20.10;55.90;;;;;;5011669;28;20521;-51
2023/06/06 09:00:24;;;;;;;;;;;20.20;56.20;;;;;;5006950;28;20041;-49
2023/06/06 09:02:55;;;;;;;11.98;8.40;;;20.30;55.50;;;;;;5008881;28;19926;-52
2023/06/06 09:05:23;;;;;;;10.50;7.88;;;20.40;56.10;;;;;;5012405;28;20103;-48
2023/06/06 09:07:53;;;;;;;12.98;8.65;;;20.40;55.70;;;;;;5012422;28;20116;-52
2023/06/06 09:10:27;;;;;;;;;;;20.40;55.50;;;;;;5004652;28;20042;-49
2023/06/06 09:12:54;;;;;;;10.15;7.93;;;20.60;54.90;;;;;;5004439;28;20012;-52
2023/06/06 09:15:21;;;;;;;14.35;8.27;;;20.60;55.40;;;;;;5007103;28;20101;-50
2023/06/06 09:17:52;;;;;;;9.65;7.85;;;20.70;55.30;;;;;;4999773;28;20125;-53
2023/06/06 09:20:32;;;;;;;8.88;7.90;;;20.90;55.30;;;;;;5003093;28;20084;-49
2023/06/06 09:23:03;;;;;;;10.73;8.27;;;20.80;56.00;;;;;;5010850;28;20061;-51
2023/06/06 09:25:35;;;;;;;;;;;20.90;55.40;;;;;;5006418;28;20037;-51
2023/06/06 09:28:10;;;;;;;7.97;6.45;;;21.00;54.70;;;;;;5011474;28;19921;-48
2023/06/06 09:30:45;;;;;;;10.57;8.18;;;21.00;54.80;;;;;;5012014;28;20136;-48
2023/06/06 09:33:16;;;;;;;10.50;8.38;;;21.10;54.60;;;;;;5001614;28;20061;-50
2023/06/06 09:35:43;;;;;;;10.77;8.40;;;21.20;54.40;;;;;;5013624;28;20045;-50
2023/06/06 09:38:23;;;;;;;10.45;8.07;;;21.20;54.80;;;;;;5008491;28;20038;-49
2023/06/06 09:40:51;;;;;;;11.82;7.97;;;21.30;55.00;;;;;;4994018;28;20068;-52
2023/06/06 09:43:44;;;;;;;9.93;7.90;;;21.40;54.90;;;;;;5018347;28;20054;-52
2023/06/06 09:46:16;;;;;;;9.82;7.85;;;21.40;54.40;;;;;;5008344;28;20034;-50
2023/06/06 09:48:58;;;;;;;11.88;7.72;;;21.50;54.20;;;;;;5011955;28;20056;-48
2023/06/06 09:51:25;;;;;;;9.67;7.33;;;21.60;54.40;;;;;;5006708;28;20041;-51
2023/06/06 09:53:52;;;;;;;11.15;7.05;;;21.70;54.30;;;;;;5004636;28;20038;-52
2023/06/06 09:56:23;;;;;;;9.00;6.90;;;21.70;54.40;;;;;;5012672;28;20042;-51
2023/06/06 09:58:56;;;;;;;10.18;7.45;;;21.80;54.00;;;;;;5011661;28;20045;-53
2023/06/06 10:01:31;;;;;;;9.38;8.13;;;21.90;53.30;;;;;;5011238;28;20049;-51
2023/06/06 10:03:59;;;;;;;12.68;7.60;;;22.00;53.10;;;;;;5004095;28;20045;-48
2023/06/06 10:06:37;;;;;;;9.45;8.25;;;22.10;52.80;;;;;;5005137;28;20046;-50
2023/06/06 10:09:07;;;;;;;8.45;6.68;;;22.10;52.40;;;;;;5010733;28;20073;-50
2023/06/06 10:11:36;;;;;;;17.65;8.38;;;22.20;52.70;;;;;;5010050;28;20040;-52
2023/06/06 10:14:08;;;;;;;8.30;6.55;;;22.20;52.60;;;;;;5005279;28;20529;-52
2023/06/06 10:16:38;;;;;;;11.02;6.78;;;22.30;52.50;;;;;;5010955;28;20085;-51
2023/06/06 10:19:08;;;;;;;10.30;7.75;;;22.40;52.40;;;;;;5011082;28;20050;-51
2023/06/06 10:21:36;;;;;;;8.05;6.55;;;22.50;52.10;;;;;;5006973;28;20038;-52
2023/06/06 10:24:03;;;;;;;8.95;6.85;;;22.60;52.20;;;;;;5006752;28;20045;-48
2023/06/06 10:26:47;;;;;;;8.57;6.80;;;22.60;52.10;;;;;;5006992;28;20034;-49
2023/06/06 10:29:47;;;;;;;11.88;7.53;;;22.70;51.90;;;;;;5011380;28;20041;-50
2023/06/06 10:32:35;;;;;;;8.73;6.55;;;22.80;51.90;;;;;;5012306;28;20042;-52
2023/06/06 10:35:06;;;;;;;8.70;6.57;;;22.80;51.20;;;;;;5007752;28;20573;-51
2023/06/06 10:37:37;;;;;;;6.50;5.15;;;22.90;51.80;;;;;;5010875;28;20050;-52
2023/06/06 10:40:10;;;;;;;6.82;5.80;;;23.00;51.60;;;;;;5010672;28;20054;-52
2023/06/06 10:42:40;;;;;;;7.65;5.97;;;23.00;51.50;;;;;;5008708;28;20559;-51
2023/06/06 10:45:09;;;;;;;7.25;6.30;;;23.10;51.60;;;;;;4992089;28;20065;-48
2023/06/06 10:47:41;;;;;;;6.85;5.22;;;23.20;49.80;;;;;;5010866;28;20038;-53
2023/06/06 10:50:09;;;;;;;6.07;4.88;;;23.30;49.30;;;;;;5004837;28;20046;-52
2023/06/06 10:52:54;;;;;;;8.60;5.57;;;23.30;49.50;;;;;;5004786;28;20054;-52
2023/06/06 10:55:29;;;;;;;5.75;5.15;;;23.40;49.10;;;;;;5000790;28;20046;-53
2023/06/06 10:58:18;;;;;;;5.88;5.22;;;23.50;49.80;;;;;;4992574;28;20038;-53
2023/06/06 11:00:49;;;;;;;5.93;4.15;;;23.60;49.30;;;;;;5010840;28;20042;-53
2023/06/06 11:03:32;;;;;;;5.50;4.20;;;23.70;49.10;;;;;;5005242;28;20042;-53
2023/06/06 11:06:19;;;;;;;4.43;3.97;;;23.70;48.70;;;;;;5010046;28;20525;-53
2023/06/06 11:08:50;;;;;;;6.07;4.68;;;23.80;48.40;;;;;;5010517;28;20081;-52
2023/06/06 11:11:23;;;;;;;5.53;4.47;;;24.00;48.00;;;;;;4999076;28;20049;-53
2023/06/06 11:13:51;;;;;;;4.53;3.92;;;24.00;47.40;;;;;;5006852;28;20490;-53
2023/06/06 11:16:45;;;;;;;9.57;5.13;;;24.10;46.40;;;;;;5005473;28;20038;-53
2023/06/06 11:19:19;;;;;;;5.55;4.35;;;24.20;47.40;;;;;;5009028;28;20052;-53
2023/06/06 11:21:58;;;;;;;5.20;4.45;;;24.30;47.80;;;;;;5006426;28;20125;-53
2023/06/06 11:24:32;;;;;;;6.13;4.07;;;24.40;47.90;;;;;;4998609;28;20041;-52
2023/06/06 11:27:09;;;;;;;6.13;4.57;;;24.50;47.10;;;;;;5001860;28;20085;-52
2023/06/06 11:29:36;;;;;;;7.82;3.88;;;24.60;46.60;;;;;;5004663;28;20038;-53
2023/06/06 11:32:08;;;;;;;5.85;4.43;;;24.60;46.40;;;;;;5009733;28;20046;-47
2023/06/06 11:34:38;;;;;;;4.10;3.60;;;24.70;46.30;;;;;;5008491;28;20104;-52
2023/06/06 11:37:12;;;;;;;6.43;4.20;;;24.80;46.10;;;;;;5009414;28;20124;-51
2023/06/06 11:39:39;;;;;;;5.18;3.85;;;24.90;45.30;;;;;;5014192;28;20473;-52
2023/06/06 11:42:14;;;;;;;7.72;4.68;;;24.90;45.00;;;;;;4996055;28;20061;-54
2023/06/06 11:44:41;;;;;;;5.82;4.55;;;25.10;45.30;;;;;;5010994;28;20446;-52
2023/06/06 11:47:08;;;;;;;5.03;4.00;;;25.10;45.30;;;;;;5012251;28;20069;-50
2023/06/06 11:49:48;;;;;;;4.68;4.18;;;25.20;46.20;;;;;;5008323;28;20116;-52
2023/06/06 11:52:17;;;;;;;4.80;3.75;;;25.30;45.50;;;;;;5001057;28;20352;-53
2023/06/06 11:54:57;;;;;;;6.95;4.70;;;25.40;45.60;;;;;;5008767;28;20112;-52
2023/06/06 11:57:24;;;;;;;6.93;4.57;;;25.50;45.30;;;;;;5010161;28;20046;-53
2023/06/06 11:59:59;;;;;;;5.20;3.55;;;25.60;45.40;;;;;;5013617;28;20054;-52
2023/06/06 12:02:26;;;;;;;6.80;4.72;;;25.60;44.50;;;;;;5002088;28;20076;-51
2023/06/06 12:04:53;;;;;;;6.45;3.90;;;25.70;44.10;;;;;;5013874;28;20048;-50
2023/06/06 12:07:20;;;;;;;4.72;4.22;;;25.80;44.30;;;;;;5005429;28;20402;-53
2023/06/06 12:09:56;;;;;;;5.93;3.90;;;25.90;44.50;;;;;;5013294;28;20057;-53
2023/06/06 12:12:25;;;;;;;6.93;4.55;;;26.00;43.40;;;;;;5008487;28;20105;-51
2023/06/06 12:14:59;;;;;;;4.30;3.88;;;26.00;43.40;;;;;;5013591;28;20041;-52
2023/06/06 12:17:29;;;;;;;4.53;3.83;;;26.10;42.50;;;;;;5013714;28;20046;-53
2023/06/06 12:19:56;;;;;;;4.93;3.55;;;26.20;42.50;;;;;;5009856;28;20046;-53
2023/06/06 12:22:37;;;;;;;7.82;3.63;;;26.20;42.40;;;;;;5010124;28;20099;-49
2023/06/06 12:25:07;;;;;;;5.28;3.80;;;26.30;41.90;;;;;;5002626;28;20081;-52
2023/06/06 12:27:36;;;;;;;4.07;3.67;;;26.40;42.10;;;;;;5013297;28;20084;-50
2023/06/06 12:30:07;;;;;;;7.75;3.38;;;26.60;41.90;;;;;;5012925;28;20046;-50
2023/06/06 12:32:39;;;;;;;6.13;4.03;;;26.60;41.30;;;;;;5010440;28;20115;-51
2023/06/06 12:35:08;;;;;;;5.85;3.60;;;26.70;41.00;;;;;;5010152;28;20077;-52
2023/06/06 12:37:36;;;;;;;4.55;3.42;;;26.80;40.90;;;;;;5006718;28;20076;-54
2023/06/06 12:40:12;;;;;;;5.28;3.58;;;26.90;40.80;;;;;;5005036;28;20120;-54
2023/06/06 12:42:39;;;;;;;6.43;4.13;;;27.00;40.10;;;;;;5009150;28;20056;-51
2023/06/06 12:45:11;;;;;;;7.95;3.90;;;27.00;40.60;;;;;;4996204;28;20049;-53
2023/06/06 12:47:44;;;;;;;4.05;3.65;;;27.10;40.70;;;;;;5012429;28;20553;-52
2023/06/06 12:50:13;;;;;;;5.82;3.28;;;27.10;40.00;;;;;;5004671;28;20187;-53
2023/06/06 12:52:40;;;;;;;5.85;3.90;;;27.20;39.70;;;;;;5006781;28;20041;-53
2023/06/06 12:55:12;;;;;;;3.53;3.10;;;27.30;39.90;;;;;;5009110;28;20056;-52
2023/06/06 12:57:47;;;;;;;5.65;3.30;;;27.30;40.20;;;;;;5012975;28;20495;-52
2023/06/06 13:00:19;;;;;;;4.30;3.30;;;27.40;40.30;;;;;;5010253;28;20095;-53
2023/06/06 13:02:49;;;;;;;4.80;3.40;;;27.60;39.50;;;;;;5003216;28;20046;-52